Vaderoarna, Sweden

3:33 PM CET on March 28, 2015 (GMT +0100)
IVASTRAG3 | | Change Station
CLOSE
Current Station
Personal Weather Station
Location: Hamburgsund, VASTRA GOTALAND
Elevation: 171 ft
Nearby Weather Stations

Elev 171 ft 58.53 °N, 11.32 °E | Updated 6 seconds ago

Mostly Cloudy
Mostly Cloudy
41.4 °F
Feels Like 41 °F
N
0.0
Wind Variable Wind from SSE
Gusts 2.0 mph

Today
High -- | Low -- °F
--% Chance of Precip.
Yesterday
High -- | Low -- °F
Precip. -- in
5:55 AM 6:47 PM
Waxing Gibbous, 63% visible
Pressure 29.77 in
Visibility 6.2 miles
Clouds Scattered Clouds 1100 ft
Mostly Cloudy 3800 ft
Windchill 41 °F
Dew Point 37 °F
Humidity 85%
Rainfall 0.00 in
Snow Depth Not available.
UV 1 out of 12
Pollen Not available.
Air Quality Not available.
Flu Activity Not available.
METAR ENTO 281420Z 19013KT 9999 SCT011 BKN038 04/02 Q1008

More Conditions Fewer Conditions

Pressure 29.77 in
Visibility 6.2 miles
Clouds Scattered Clouds 1100 ft
Mostly Cloudy 3800 ft
Windchill 41 °F
Dew Point 37 °F
Humidity 85%
Rainfall 0.00 in
Snow Depth Not available.
UV 1 out of 12
Pollen Not available.
Air Quality Not available.
Flu Activity Not available.
METAR ENTO 281420Z 19013KT 9999 SCT011 BKN038 04/02 Q1008

More Conditions Fewer Conditions

10-Day Weather Forecast

Almanac

Astronomy

Mar. 28, 2015 Rise Set
Actual Time
Civil Twilight
Nautical Twilight
Astronomical Twilight
Moon
Length of Visible Light
Length of Day
Tomorrow will be .
, % of the Moon is Illuminated

Today's Extremes

Country Highs Country Lows

Community

WunderPhotos

Upload Photos

1,808,986 photos uploaded!

WunderBlogs® & News

Nearby

Air Quality

  Air Quality AQ Index Pollutant
Not available.

Snow Depth

Station Depth Elevation

Earthquake Activity

City Distance Mag. Time & Date
Minimum magnitude displayed is 2.5.

Coastal Water Temperatures

Place Temperature

Stations

Nearby Weather Stations

Station Location Temp. Windchill Dew Point Humidity Wind Precip. Elev Updated Type